createdAt,value
2022-11-02T00:01:22.380Z,100383.72
2022-11-02T00:03:55.516Z,100380.97
2022-11-02T00:06:28.640Z,100378.97
2022-11-02T00:09:03.261Z,100376.97
2022-11-02T00:11:37.606Z,100375.06
2022-11-02T00:14:10.729Z,100373.09
2022-11-02T00:16:44.053Z,100372.94
2022-11-02T00:19:17.225Z,100370.25
2022-11-02T00:21:50.547Z,100372.84
2022-11-02T00:24:25.130Z,100369.97
2022-11-02T00:26:58.452Z,100366.34
2022-11-02T00:29:34.013Z,100379.59
2022-11-02T00:32:07.300Z,100374.06
2022-11-02T00:34:40.560Z,100384.59
2022-11-02T00:37:14.116Z,100381.94
2022-11-02T00:39:48.608Z,100379.16
2022-11-02T00:42:21.732Z,100381.84
2022-11-02T00:44:58.092Z,100383.53
2022-11-02T00:47:31.696Z,100386.19
2022-11-02T00:50:07.273Z,100384.38
2022-11-02T00:52:43.944Z,100379.97
2022-11-02T00:55:19.042Z,100384.53
2022-11-02T00:57:55.356Z,100384.47
2022-11-02T01:00:28.568Z,100384.47
2022-11-02T01:03:02.063Z,100380.97
2022-11-02T01:05:35.305Z,100374.59
2022-11-02T01:08:08.676Z,100365.44
2022-11-02T01:10:47.191Z,100382.22
2022-11-02T01:13:22.842Z,100386.53
2022-11-02T01:15:56.012Z,100381.09
2022-11-02T01:18:29.441Z,100385.31
2022-11-02T01:21:03.025Z,100383.31
2022-11-02T01:23:36.468Z,100384.97
2022-11-02T01:26:12.060Z,100387.47
2022-11-02T01:28:46.845Z,100386.63
2022-11-02T01:31:22.692Z,100387.56
2022-11-02T01:33:58.304Z,100386.78
2022-11-02T01:36:31.676Z,100384.19
2022-11-02T01:39:05.256Z,100375.19
2022-11-02T01:41:43.269Z,100380.44
2022-11-02T01:44:28.797Z,100371.47
2022-11-02T01:47:04.469Z,100377.50
2022-11-02T01:49:39.198Z,100379.94
2022-11-02T01:52:16.995Z,100375.31
2022-11-02T01:54:55.580Z,100387.03
2022-11-02T01:57:30.964Z,100388.84
2022-11-02T02:00:06.164Z,100388.84
2022-11-02T02:02:48.952Z,100390.75
2022-11-02T02:05:23.893Z,100389.81
2022-11-02T02:08:00.674Z,100396.88
2022-11-02T02:10:33.834Z,100397.94
2022-11-02T02:13:13.112Z,100400.72
2022-11-02T02:15:51.926Z,100402.63
2022-11-02T02:18:28.830Z,100401.75
2022-11-02T02:21:10.549Z,100399.94
2022-11-02T02:23:55.941Z,100396.28
2022-11-02T02:26:47.402Z,100402.63
2022-11-02T02:29:23.312Z,100397.28
2022-11-02T02:31:59.596Z,100394.66
2022-11-02T02:34:36.860Z,100396.38
2022-11-02T02:37:14.802Z,100390.84
2022-11-02T02:39:51.691Z,100396.22
2022-11-02T02:42:26.971Z,100397.19
2022-11-02T02:45:07.615Z,100393.63
2022-11-02T02:47:44.562Z,100391.72
2022-11-02T02:50:20.034Z,100398.88
2022-11-02T02:52:54.213Z,100390.75
2022-11-02T02:55:30.098Z,100392.56
2022-11-02T02:58:04.478Z,100394.28
2022-11-02T03:00:39.358Z,100401.47
2022-11-02T03:03:13.782Z,100402.47
2022-11-02T03:05:56.848Z,100407.84
2022-11-02T03:08:30.514Z,100414.81
2022-11-02T03:11:06.841Z,100410.31
2022-11-02T03:13:44.115Z,100415.59
2022-11-02T03:16:23.744Z,100409.38
2022-11-02T03:19:02.196Z,100409.38
2022-11-02T03:21:39.519Z,100409.28
2022-11-02T03:24:15.469Z,100414.47
2022-11-02T03:26:53.971Z,100417.06
2022-11-02T03:29:30.348Z,100416.03
2022-11-02T03:32:08.417Z,100419.41
2022-11-02T03:34:42.772Z,100420.06
2022-11-02T03:37:20.845Z,100418.16
2022-11-02T03:39:56.197Z,100416.28
2022-11-02T03:42:32.006Z,100412.53
2022-11-02T03:45:08.709Z,100408.97
2022-11-02T03:47:46.269Z,100418.78
2022-11-02T03:50:21.832Z,100418.78
2022-11-02T03:52:57.779Z,100419.53
2022-11-02T03:55:35.268Z,100421.28
2022-11-02T03:58:11.364Z,100419.38
2022-11-02T04:00:48.393Z,100419.19
2022-11-02T04:03:24.459Z,100430.59
2022-11-02T04:05:59.638Z,100436.75
2022-11-02T04:08:39.040Z,100437.44
2022-11-02T04:11:32.785Z,100442.72
2022-11-02T04:14:34.664Z,100443.78
2022-11-02T04:17:27.274Z,100443.94
2022-11-02T04:20:03.114Z,100445.69
2022-11-02T04:22:53.875Z,100442.03
2022-11-02T04:25:26.992Z,100440.50
2022-11-02T04:28:23.636Z,100440.50
2022-11-02T04:31:02.164Z,100444.13
2022-11-02T04:33:41.565Z,100444.13
2022-11-02T04:36:22.340Z,100447.75
2022-11-02T04:38:59.269Z,100442.28
2022-11-02T04:45:30.553Z,100454.59
2022-11-02T04:51:47.145Z,100449.31
2022-11-02T04:54:24.468Z,100447.56
2022-11-02T04:57:02.698Z,100446.72
2022-11-02T04:59:37.184Z,100447.56
2022-11-02T05:02:11.399Z,100447.56
2022-11-02T05:04:45.117Z,100451.16
2022-11-02T05:07:21.180Z,100448.47
2022-11-02T05:09:54.407Z,100456.44
2022-11-02T05:12:29.580Z,100457.28
2022-11-02T05:15:06.100Z,100457.28
2022-11-02T05:17:39.490Z,100458.13
2022-11-02T05:20:13.037Z,100465.25
2022-11-02T05:22:47.794Z,100453.66
2022-11-02T05:25:23.743Z,100465.25
2022-11-02T05:27:57.767Z,100464.41
2022-11-02T05:30:31.433Z,100472.38
2022-11-02T05:33:04.934Z,100465.06
2022-11-02T05:35:38.526Z,100471.88
2022-11-02T05:38:13.245Z,100478.84
2022-11-02T05:40:46.616Z,100475.88
2022-11-02T05:43:19.995Z,100480.19
2022-11-02T05:45:54.495Z,100476.47
2022-11-02T05:48:28.439Z,100483.50
2022-11-02T05:51:02.577Z,100483.31
2022-11-02T05:53:38.605Z,100482.25
2022-11-02T05:56:13.673Z,100490.31
2022-11-02T05:58:46.904Z,100486.56
2022-11-02T06:01:20.363Z,100491.88
2022-11-02T06:03:54.654Z,100490.69
2022-11-02T06:06:28.022Z,100490.53
2022-11-02T06:09:06.923Z,100501.88
2022-11-02T06:11:40.640Z,100505.34
2022-11-02T06:14:15.753Z,100500.81
2022-11-02T06:16:48.985Z,100508.13
2022-11-02T06:19:22.207Z,100510.72
2022-11-02T06:21:55.467Z,100516.84
2022-11-02T06:24:30.128Z,100515.84
2022-11-02T06:27:03.361Z,100518.53
2022-11-02T06:29:36.640Z,100522.94
2022-11-02T06:32:09.786Z,100520.25
2022-11-02T06:34:42.957Z,100515.75
2022-11-02T06:37:16.123Z,100526.41
2022-11-02T06:39:50.748Z,100531.72
2022-11-02T06:42:24.154Z,100534.31
2022-11-02T06:45:02.662Z,100530.72
2022-11-02T06:47:37.125Z,100533.31
2022-11-02T06:50:10.862Z,100533.22
2022-11-02T06:52:44.545Z,100534.97
2022-11-02T06:55:19.974Z,100532.09
2022-11-02T06:57:53.121Z,100529.41
2022-11-02T07:00:26.499Z,100534.72
2022-11-02T07:03:03.210Z,100532.03
2022-11-02T07:05:37.226Z,100531.22
2022-11-02T07:08:10.654Z,100534.97
2022-11-02T07:10:45.512Z,100544.88
2022-11-02T07:13:18.825Z,100539.59
2022-11-02T07:15:52.788Z,100547.66
2022-11-02T07:18:26.078Z,100547.84
2022-11-02T07:21:00.162Z,100544.44
2022-11-02T07:23:33.334Z,100541.75
2022-11-02T07:26:08.247Z,100547.13
2022-11-02T07:28:41.387Z,100542.47
2022-11-02T07:31:14.597Z,100544.66
2022-11-02T07:33:47.829Z,100538.16
2022-11-02T07:36:21.129Z,100539.63
2022-11-02T07:38:54.278Z,100544.91
2022-11-02T07:41:28.927Z,100536.63
2022-11-02T07:44:02.182Z,100543.47
2022-11-02T07:46:58.385Z,100540.50
2022-11-02T07:49:31.551Z,100540.50
2022-11-02T07:52:04.815Z,100545.78
2022-11-02T07:54:43.498Z,100536.69
2022-11-02T07:57:19.127Z,100530.13
2022-11-02T07:59:52.420Z,100533.22
2022-11-02T08:02:37.195Z,100537.94
2022-11-02T08:05:10.626Z,100539.16
2022-11-02T08:07:43.755Z,100537.94
2022-11-02T08:10:17.026Z,100534.00
2022-11-02T08:12:51.596Z,100537.53
2022-11-02T08:15:24.792Z,100538.59
2022-11-02T08:18:04.489Z,100535.13
2022-11-02T08:20:37.920Z,100531.50
2022-11-02T08:23:11.801Z,100530.50
2022-11-02T08:25:46.514Z,100525.91
2022-11-02T08:28:22.865Z,100530.22
2022-11-02T08:30:56.096Z,100525.63
2022-11-02T08:33:29.333Z,100515.50
2022-11-02T08:36:03.030Z,100523.41
2022-11-02T08:38:36.293Z,100518.75
2022-11-02T08:41:09.772Z,100520.25
2022-11-02T08:43:44.435Z,100519.25
2022-11-02T08:46:17.827Z,100520.59
2022-11-02T08:48:58.322Z,100515.13
2022-11-02T08:51:32.040Z,100519.44
2022-11-02T08:54:05.714Z,100522.25
2022-11-02T08:56:38.920Z,100518.66
2022-11-02T08:59:13.421Z,100516.69
2022-11-02T09:01:46.707Z,100523.13
2022-11-02T09:04:19.974Z,100514.63
2022-11-02T09:06:58.225Z,100520.22
2022-11-02T09:09:31.515Z,100526.47
2022-11-02T09:12:04.733Z,100517.31
2022-11-02T09:14:39.313Z,100521.59
2022-11-02T09:17:12.493Z,100517.59
2022-11-02T09:19:45.688Z,100522.66
2022-11-02T09:22:18.975Z,100518.06
2022-11-02T09:24:52.294Z,100517.88
2022-11-02T09:27:25.477Z,100523.50
2022-11-02T09:30:00.256Z,100526.31
2022-11-02T09:32:34.010Z,100525.47
2022-11-02T09:35:12.041Z,100512.91
2022-11-02T09:37:49.998Z,100521.22
2022-11-02T09:40:28.242Z,100518.53
2022-11-02T09:43:07.193Z,100522.44
2022-11-02T09:45:48.375Z,100524.81
2022-11-02T09:48:28.393Z,100519.63
2022-11-02T09:51:05.885Z,100520.19
2022-11-02T09:53:45.208Z,100518.47
2022-11-02T09:56:21.401Z,100522.97
2022-11-02T09:58:58.787Z,100524.00
2022-11-02T10:01:40.958Z,100516.38
2022-11-02T10:04:44.507Z,100514.78
2022-11-02T10:07:23.201Z,100525.00
2022-11-02T10:09:57.991Z,100530.00
2022-11-02T10:12:36.621Z,100523.03
2022-11-02T10:15:12.665Z,100527.38
2022-11-02T10:17:48.973Z,100523.25
2022-11-02T10:20:26.862Z,100521.34
2022-11-02T10:23:03.889Z,100517.16
2022-11-02T10:25:39.168Z,100523.16
2022-11-02T10:28:15.893Z,100516.88
2022-11-02T10:30:52.323Z,100512.31
2022-11-02T10:33:28.576Z,100518.59
2022-11-02T10:36:18.003Z,100516.91
2022-11-02T10:39:01.141Z,100519.56
2022-11-02T10:41:40.045Z,100521.75
2022-11-02T10:44:19.970Z,100524.59
2022-11-02T10:47:03.203Z,100524.50
2022-11-02T10:49:53.288Z,100522.06
2022-11-02T10:52:27.483Z,100512.25
2022-11-02T10:55:00.799Z,100513.13
2022-11-02T10:57:38.253Z,100510.00
2022-11-02T11:00:28.567Z,100503.78
2022-11-02T11:03:05.865Z,100499.63
2022-11-02T11:05:52.480Z,100508.00
2022-11-02T11:08:29.976Z,100505.88
2022-11-02T11:11:16.989Z,100505.06
2022-11-02T11:19:52.571Z,100512.63
2022-11-02T11:22:30.956Z,100523.28
2022-11-02T11:25:26.787Z,100535.53
2022-11-02T11:28:01.747Z,100526.75
2022-11-02T11:33:29.663Z,100520.94
2022-11-02T11:36:03.298Z,100521.63
2022-11-02T11:38:38.532Z,100519.50
2022-11-02T11:41:13.167Z,100512.03
2022-11-02T11:43:48.529Z,100518.03
2022-11-02T11:46:21.944Z,100512.84
2022-11-02T11:48:56.881Z,100517.63
2022-11-02T11:51:32.938Z,100511.25
2022-11-02T11:54:08.787Z,100508.66
2022-11-02T11:56:42.040Z,100506.44
2022-11-02T11:59:25.721Z,100494.72
2022-11-02T12:02:00.073Z,100497.31
2022-11-02T12:04:35.590Z,100499.72
2022-11-02T12:07:23.766Z,100486.00
2022-11-02T12:10:04.888Z,100496.47
2022-11-02T12:12:45.253Z,100496.63
2022-11-02T12:15:25.501Z,100492.44
2022-11-02T12:18:07.156Z,100489.19
2022-11-02T12:20:47.528Z,100484.00
2022-11-02T12:23:35.482Z,100475.59
2022-11-02T12:26:16.286Z,100474.56
2022-11-02T12:28:56.192Z,100474.38
2022-11-02T12:31:36.606Z,100476.91
2022-11-02T12:34:24.929Z,100466.94
2022-11-02T12:40:04.455Z,100476.03
2022-11-02T12:42:43.292Z,100466.91
2022-11-02T12:45:23.222Z,100476.25
2022-11-02T12:47:58.402Z,100481.75
2022-11-02T12:50:38.840Z,100473.03
2022-11-02T12:53:20.397Z,100478.84
2022-11-02T12:55:54.729Z,100483.63
2022-11-02T12:58:31.064Z,100475.06
2022-11-02T13:01:13.462Z,100485.16
2022-11-02T13:03:56.675Z,100477.72
2022-11-02T13:06:32.981Z,100476.88
2022-11-02T13:09:09.410Z,100478.50
2022-11-02T13:11:44.185Z,100471.03
2022-11-02T13:14:20.863Z,100477.00
2022-11-02T13:16:56.436Z,100474.84
2022-11-02T13:19:33.785Z,100477.53
2022-11-02T13:22:10.749Z,100464.34
2022-11-02T13:24:46.423Z,100463.50
2022-11-02T13:27:41.574Z,100467.03
2022-11-02T13:30:20.253Z,100475.81
2022-11-02T13:32:58.150Z,100480.09
2022-11-02T13:35:34.250Z,100478.41
2022-11-02T13:38:18.265Z,100476.84
2022-11-02T13:40:56.276Z,100482.56
2022-11-02T13:43:44.429Z,100487.44
2022-11-02T13:46:25.784Z,100480.22
2022-11-02T13:49:02.661Z,100469.94
2022-11-02T13:51:37.890Z,100473.69
2022-11-02T13:54:14.119Z,100471.16
2022-11-02T13:56:48.622Z,100475.25
2022-11-02T13:59:23.173Z,100483.16
2022-11-02T14:01:58.783Z,100483.38
2022-11-02T14:04:39.153Z,100478.53
2022-11-02T14:07:21.846Z,100485.38
2022-11-02T14:09:59.334Z,100489.81
2022-11-02T14:12:43.410Z,100491.00
2022-11-02T14:15:42.560Z,100494.72
2022-11-02T14:18:27.346Z,100485.41
2022-11-02T14:21:20.819Z,100479.25
2022-11-02T14:23:54.042Z,100476.09
2022-11-02T14:26:54.993Z,100477.53
2022-11-02T14:29:38.617Z,100476.31
2022-11-02T14:32:16.015Z,100479.13
2022-11-02T14:34:58.799Z,100482.06
2022-11-02T14:37:40.115Z,100489.53
2022-11-02T14:40:21.868Z,100488.09
2022-11-02T14:43:10.416Z,100485.06
2022-11-02T14:45:50.600Z,100483.50
2022-11-02T14:48:24.943Z,100486.16
2022-11-02T14:51:02.234Z,100488.72
2022-11-02T14:53:37.437Z,100494.81
2022-11-02T14:56:10.890Z,100496.41
2022-11-02T14:58:50.604Z,100500.00
2022-11-02T15:01:24.451Z,100501.66
2022-11-02T15:03:57.686Z,100502.34
2022-11-02T15:06:32.614Z,100511.00
2022-11-02T15:09:06.087Z,100511.59
2022-11-02T15:11:46.531Z,100514.94
2022-11-02T15:14:32.716Z,100517.53
2022-11-02T15:17:29.535Z,100519.09
2022-11-02T15:20:17.560Z,100519.75
2022-11-02T15:22:54.834Z,100528.38
2022-11-02T15:25:31.442Z,100531.56
2022-11-02T15:28:08.159Z,100525.75
2022-11-02T15:30:44.227Z,100531.53
2022-11-02T15:33:21.600Z,100531.88
2022-11-02T15:35:55.475Z,100532.22
2022-11-02T15:38:34.023Z,100536.22
2022-11-02T15:41:19.312Z,100533.97
2022-11-02T15:44:06.276Z,100542.50
2022-11-02T15:46:45.819Z,100535.84
2022-11-02T15:49:26.802Z,100541.66
2022-11-02T15:52:05.080Z,100541.13
2022-11-02T15:54:47.478Z,100547.75
2022-11-02T15:57:26.361Z,100550.78
2022-11-02T16:00:13.971Z,100555.53
2022-11-02T16:02:48.186Z,100557.59
2022-11-02T16:05:23.758Z,100556.91
2022-11-02T16:08:10.476Z,100561.50
2022-11-02T16:10:49.107Z,100557.16
2022-11-02T16:13:29.546Z,100556.41
2022-11-02T16:16:07.084Z,100550.16
2022-11-02T16:18:41.121Z,100560.09
2022-11-02T16:21:15.001Z,100557.44
2022-11-02T16:23:49.317Z,100561.09
2022-11-02T16:26:25.893Z,100556.56
2022-11-02T16:29:00.083Z,100557.44
2022-11-02T16:31:36.738Z,100556.56
2022-11-02T16:34:17.498Z,100559.25
2022-11-02T16:36:53.942Z,100560.19
2022-11-02T16:39:29.225Z,100560.28
2022-11-02T16:42:11.972Z,100562.19
2022-11-02T16:44:55.010Z,100559.66
2022-11-02T16:47:39.005Z,100570.66
2022-11-02T16:50:23.016Z,100570.06
2022-11-02T16:52:58.065Z,100569.28
2022-11-02T16:55:39.063Z,100581.13
2022-11-02T16:58:17.901Z,100579.66
2022-11-02T17:00:58.013Z,100579.81
2022-11-02T17:03:32.316Z,100581.69
2022-11-02T17:06:08.999Z,100586.28
2022-11-02T17:08:44.323Z,100587.22
2022-11-02T17:11:18.565Z,100589.03
2022-11-02T17:13:55.189Z,100588.34
2022-11-02T17:16:35.568Z,100586.56
2022-11-02T17:19:29.980Z,100590.13
2022-11-02T17:22:07.247Z,100590.13
2022-11-02T17:24:40.761Z,100598.03
2022-11-02T17:27:25.016Z,100595.28
2022-11-02T17:29:59.780Z,100595.09
2022-11-02T17:32:33.483Z,100587.88
2022-11-02T17:35:16.668Z,100585.88
2022-11-02T17:37:50.595Z,100593.69
2022-11-02T17:40:24.137Z,100592.47
2022-11-02T17:42:59.924Z,100597.50
2022-11-02T17:45:39.903Z,100591.78
2022-11-02T17:48:13.248Z,100595.00
2022-11-02T17:50:48.967Z,100590.16
2022-11-02T17:53:23.131Z,100585.44
2022-11-02T17:55:58.643Z,100589.66
2022-11-02T17:58:32.100Z,100595.72
2022-11-02T18:01:07.279Z,100592.09
2022-11-02T18:03:40.991Z,100587.66
2022-11-02T18:06:14.302Z,100598.50
2022-11-02T18:09:04.738Z,100593.31
2022-11-02T18:11:38.163Z,100587.22
2022-11-02T18:14:14.328Z,100598.03
2022-11-02T18:16:50.677Z,100590.16
2022-11-02T18:19:23.912Z,100592.16
2022-11-02T18:21:57.122Z,100593.28
2022-11-02T18:24:30.473Z,100589.88
2022-11-02T18:27:03.679Z,100594.47
2022-11-02T18:29:36.984Z,100595.41
2022-11-02T18:32:11.586Z,100602.53
2022-11-02T18:34:44.928Z,100606.97
2022-11-02T18:37:26.343Z,100605.91
2022-11-02T18:40:02.874Z,100603.16
2022-11-02T18:42:37.038Z,100611.19
2022-11-02T18:45:11.857Z,100609.41
2022-11-02T18:47:46.585Z,100610.16
2022-11-02T18:50:20.078Z,100609.13
2022-11-02T18:52:53.567Z,100610.78
2022-11-02T18:55:28.301Z,100611.56
2022-11-02T18:58:01.595Z,100610.53
2022-11-02T19:00:35.416Z,100611.38
2022-11-02T19:03:16.927Z,100616.66
2022-11-02T19:06:07.603Z,100616.66
2022-11-02T19:08:58.193Z,100623.78
2022-11-02T19:11:39.978Z,100618.41
2022-11-02T19:14:13.551Z,100622.84
2022-11-02T19:16:46.670Z,100621.97
2022-11-02T19:19:21.496Z,100618.41
2022-11-02T19:21:57.270Z,100619.34
2022-11-02T19:24:33.051Z,100627.41
2022-11-02T19:27:06.325Z,100623.00
2022-11-02T19:29:46.614Z,100634.78
2022-11-02T19:32:20.502Z,100631.31
2022-11-02T19:34:55.740Z,100632.34
2022-11-02T19:37:34.528Z,100624.53
2022-11-02T19:40:15.346Z,100634.59
2022-11-02T19:42:49.873Z,100641.94
2022-11-02T19:45:23.114Z,100648.34
2022-11-02T19:47:56.363Z,100644.94
2022-11-02T19:50:31.158Z,100645.88
2022-11-02T19:53:04.460Z,100644.00
2022-11-02T19:55:37.731Z,100644.00
2022-11-02T19:58:11.004Z,100637.69
2022-11-02T20:00:46.463Z,100637.59
2022-11-02T20:03:23.601Z,100629.53
2022-11-02T20:06:02.002Z,100647.72
2022-11-02T20:08:35.371Z,100640.84
2022-11-02T20:11:09.710Z,100643.00
2022-11-02T20:13:46.355Z,100647.75
2022-11-02T20:16:20.700Z,100639.00
2022-11-02T20:19:00.292Z,100644.59
2022-11-02T20:21:42.726Z,100644.81
2022-11-02T20:24:16.562Z,100649.72
2022-11-02T20:26:50.200Z,100651.94
2022-11-02T20:29:26.418Z,100649.63
2022-11-02T20:31:59.700Z,100657.06
2022-11-02T20:34:32.970Z,100646.81
2022-11-02T20:37:07.681Z,100644.44
2022-11-02T20:39:41.003Z,100649.22
2022-11-02T20:42:14.310Z,100650.41
2022-11-02T20:44:49.422Z,100655.91
2022-11-02T20:47:22.878Z,100659.69
2022-11-02T20:49:56.053Z,100667.06
2022-11-02T20:52:30.730Z,100667.41
2022-11-02T20:55:03.936Z,100668.56
2022-11-02T20:57:37.940Z,100680.28
2022-11-02T21:00:12.182Z,100685.00
2022-11-02T21:02:46.153Z,100680.75
2022-11-02T21:05:19.365Z,100674.56
2022-11-02T21:07:54.000Z,100684.56
2022-11-02T21:10:27.133Z,100690.06
2022-11-02T21:13:17.882Z,100679.50
2022-11-02T21:15:51.071Z,100677.75
2022-11-02T21:18:24.211Z,100672.50
2022-11-02T21:20:57.467Z,100683.22
2022-11-02T21:23:34.725Z,100684.00
2022-11-02T21:26:08.823Z,100684.78
2022-11-02T21:28:44.793Z,100683.78
2022-11-02T21:31:19.468Z,100690.78
2022-11-02T21:33:52.677Z,100692.59
2022-11-02T21:36:25.857Z,100698.09
2022-11-02T21:39:03.624Z,100685.66
2022-11-02T21:41:39.179Z,100697.47
2022-11-02T21:44:12.899Z,100693.09
2022-11-02T21:46:46.130Z,100698.47
2022-11-02T21:49:19.362Z,100697.69
2022-11-02T21:51:52.767Z,100702.31
2022-11-02T21:54:30.395Z,100694.44
2022-11-02T21:57:03.557Z,100695.56
2022-11-02T21:59:36.715Z,100697.66
2022-11-02T22:02:11.243Z,100692.53
2022-11-02T22:04:44.493Z,100694.66
2022-11-02T22:07:17.912Z,100698.47
2022-11-02T22:09:55.372Z,100704.03
2022-11-02T22:12:46.067Z,100703.44
2022-11-02T22:15:19.201Z,100702.84
2022-11-02T22:17:54.208Z,100702.25
2022-11-02T22:20:27.344Z,100702.44
2022-11-02T22:23:00.443Z,100703.50
2022-11-02T22:25:35.188Z,100706.41
2022-11-02T22:28:10.251Z,100707.59
2022-11-02T22:30:43.417Z,100711.44
2022-11-02T22:33:16.903Z,100711.63
2022-11-02T22:35:50.094Z,100719.84
2022-11-02T22:38:40.603Z,100715.47
2022-11-02T22:41:15.855Z,100720.88
2022-11-02T22:43:55.657Z,100725.38
2022-11-02T22:46:30.488Z,100729.81
2022-11-02T22:49:13.772Z,100722.75
2022-11-02T22:51:47.606Z,100735.34
2022-11-02T22:54:23.910Z,100739.91
2022-11-02T22:57:01.337Z,100748.91
2022-11-02T22:59:34.609Z,100750.75
2022-11-02T23:02:09.151Z,100744.72
2022-11-02T23:07:29.872Z,100743.13
2022-11-02T23:10:22.986Z,100753.03
2022-11-02T23:13:07.545Z,100750.50
2022-11-02T23:15:41.740Z,100749.75
2022-11-02T23:18:16.980Z,100755.16
2022-11-02T23:20:53.961Z,100741.97
2022-11-02T23:23:44.450Z,100746.47
2022-11-02T23:26:17.611Z,100751.00
2022-11-02T23:29:09.552Z,100752.84
2022-11-02T23:32:02.813Z,100758.31
2022-11-02T23:34:36.080Z,100757.66
2022-11-02T23:37:11.095Z,100759.50
2022-11-02T23:39:50.090Z,100753.38
2022-11-02T23:42:23.933Z,100760.59
2022-11-02T23:44:58.500Z,100761.63
2022-11-02T23:47:49.448Z,100756.47
2022-11-02T23:50:36.913Z,100765.38
2022-11-02T23:53:29.783Z,100754.81
2022-11-02T23:56:31.902Z,100765.63
2022-11-02T23:59:08.876Z,100769.31
